Terminal Aerodrome Forecast
Issued by NWS

Home | Current Version | Previous Version | Text Only | Print | Product List | Glossary On
Versions: 1 2 3 4 5 6 7 8 9 10 11 12 13 14 15 16 17 18 19 20 21 22 23 24 25
000
FTUS43 KEAX 181834 AAE
TAFMKC
TAF AMD
KMKC 181834Z 1819/1918 16007KT P6SM -RA FEW008 FEW045 OVC110
     FM182000 17007KT P6SM BKN030
     FM191000 15006KT P6SM BKN140=

USA.gov is the U.S. government's official web portal to all federal, state and local government web resources and services.